Time;durP1;ratioP1;P1;durP2;ratioP2;P2;SDS_P1;SDS_P2;PMS_P1;PMS_P2;Temp;Humidity;BMP_temperature;BMP_pressure;BME280_temperature;BME280_humidity;BME280_pressure;Samples;Min_cycle;Max_cycle;Signal;HPM_P1;HPM_P2
2024/03/21 00:00:13;;;;;;;0.68;0.68;;;18.80;68.30;;;;;;5031207;28;20025;-66
2024/03/21 00:02:40;;;;;;;0.82;0.70;;;18.80;68.30;;;;;;5031187;28;20100;-67
2024/03/21 00:05:07;;;;;;;0.70;0.65;;;18.80;68.30;;;;;;5013685;28;20520;-66
2024/03/21 00:07:33;;;;;;;1.25;0.75;;;18.80;68.30;;;;;;5036330;28;20021;-66
2024/03/21 00:09:59;;;;;;;0.68;0.50;;;18.80;68.30;;;;;;5037909;28;20082;-66
2024/03/21 00:12:25;;;;;;;0.60;0.60;;;18.80;68.30;;;;;;5036313;28;20077;-66
2024/03/21 00:14:51;;;;;;;1.67;1.17;;;18.80;68.30;;;;;;5037527;28;20021;-66
2024/03/21 00:17:16;;;;;;;0.50;0.50;;;18.80;68.30;;;;;;5036886;28;20033;-66
2024/03/21 00:19:42;;;;;;;0.77;0.77;;;18.80;68.30;;;;;;5036538;28;20029;-66
2024/03/21 00:22:07;;;;;;;0.68;0.68;;;18.80;68.30;;;;;;5030392;28;20104;-68
2024/03/21 00:24:37;;;;;;;0.80;0.70;;;18.80;68.30;;;;;;5030683;28;20018;-66
2024/03/21 00:27:04;;;;;;;0.80;0.80;;;18.80;68.30;;;;;;5030772;28;20041;-66
2024/03/21 00:29:30;;;;;;;0.60;0.60;;;18.80;68.30;;;;;;5030653;28;20428;-66
2024/03/21 00:31:56;;;;;;;0.85;0.70;;;18.80;68.30;;;;;;5030116;28;20079;-66
2024/03/21 00:34:22;;;;;;;1.05;0.70;;;18.80;68.30;;;;;;5030773;28;20034;-66
2024/03/21 00:36:47;;;;;;;1.00;0.80;;;18.80;68.30;;;;;;5030761;28;20486;-66
2024/03/21 00:39:23;;;;;;;1.20;0.80;;;18.80;68.20;;;;;;5030870;28;20037;-66
2024/03/21 00:41:49;;;;;;;0.70;0.70;;;18.80;68.30;;;;;;5029836;28;20033;-68
2024/03/21 00:44:15;;;;;;;0.70;0.70;;;18.80;68.20;;;;;;5029488;28;20029;-66
2024/03/21 00:46:41;;;;;;;0.70;0.70;;;18.80;68.20;;;;;;5030564;28;20032;-66
2024/03/21 00:49:08;;;;;;;0.98;0.88;;;18.80;68.20;;;;;;5030290;28;20029;-66
2024/03/21 00:51:34;;;;;;;0.77;0.70;;;18.80;68.30;;;;;;5029473;28;20082;-66
2024/03/21 00:54:00;;;;;;;0.77;0.65;;;18.80;68.20;;;;;;5030487;28;20107;-66
2024/03/21 00:56:26;;;;;;;0.55;0.55;;;18.80;68.20;;;;;;5030090;28;20024;-66
2024/03/21 00:58:57;;;;;;;0.93;0.90;;;18.80;68.20;;;;;;5030087;28;20034;-66
2024/03/21 01:01:24;;;;;;;0.85;0.40;;;18.80;68.20;;;;;;5029588;28;20045;-66
2024/03/21 01:03:49;;;;;;;0.65;0.60;;;18.80;68.20;;;;;;5030230;28;20124;-66
2024/03/21 01:06:15;;;;;;;0.70;0.70;;;18.80;68.20;;;;;;5030344;28;20022;-66
2024/03/21 01:08:40;;;;;;;0.60;0.60;;;18.80;68.20;;;;;;5030099;28;20037;-66
2024/03/21 01:11:06;;;;;;;0.90;0.70;;;18.80;68.20;;;;;;5029555;28;20018;-66
2024/03/21 01:13:32;;;;;;;1.00;1.00;;;18.80;68.20;;;;;;5028871;28;20079;-66
2024/03/21 01:15:57;;;;;;;0.80;0.80;;;18.80;68.20;;;;;;5029868;28;20026;-66
2024/03/21 01:18:34;;;;;;;0.70;0.70;;;18.80;68.20;;;;;;5030148;28;20037;-66
2024/03/21 01:21:04;;;;;;;0.70;0.70;;;18.80;68.20;;;;;;5029915;28;20389;-66
2024/03/21 01:23:30;;;;;;;0.90;0.90;;;18.80;68.20;;;;;;5031781;28;20025;-67
2024/03/21 01:25:56;;;;;;;0.70;0.70;;;18.80;68.20;;;;;;5034051;28;20135;-66
2024/03/21 01:28:22;;;;;;;0.90;0.82;;;18.80;68.20;;;;;;5033825;28;20029;-66
2024/03/21 01:30:47;;;;;;;0.77;0.63;;;18.80;68.20;;;;;;5033788;28;20032;-66
2024/03/21 01:33:13;;;;;;;1.10;0.77;;;18.80;68.20;;;;;;5033512;28;20204;-66
2024/03/21 01:35:39;;;;;;;0.93;0.90;;;18.80;68.20;;;;;;5033844;28;20030;-66
2024/03/21 01:38:05;;;;;;;0.60;0.60;;;18.80;68.20;;;;;;5033877;28;20088;-66
2024/03/21 01:40:31;;;;;;;0.98;0.98;;;18.80;68.20;;;;;;5033519;28;20029;-66
2024/03/21 01:42:57;;;;;;;0.70;0.70;;;18.80;68.20;;;;;;5032425;28;20432;-66
2024/03/21 01:45:23;;;;;;;0.63;0.50;;;18.80;68.20;;;;;;5034108;28;20026;-66
2024/03/21 01:47:48;;;;;;;0.68;0.68;;;18.80;68.20;;;;;;5033638;28;20049;-67
2024/03/21 01:50:14;;;;;;;0.80;0.80;;;18.80;68.20;;;;;;5032656;28;20018;-66
2024/03/21 01:52:42;;;;;;;0.60;0.60;;;18.80;68.20;;;;;;5033229;28;20030;-66
2024/03/21 01:55:13;;;;;;;0.80;0.80;;;18.80;68.20;;;;;;5033718;28;20048;-67
2024/03/21 01:57:38;;;;;;;1.10;0.77;;;18.80;68.20;;;;;;5033660;28;20018;-67
2024/03/21 02:00:04;;;;;;;0.73;0.70;;;18.80;68.20;;;;;;5033438;28;20029;-67
2024/03/21 02:02:30;;;;;;;0.70;0.70;;;18.80;68.10;;;;;;5032990;28;20444;-66
2024/03/21 02:04:56;;;;;;;0.73;0.73;;;18.80;68.10;;;;;;5033440;28;20026;-66
2024/03/21 02:07:22;;;;;;;0.70;0.70;;;18.80;68.10;;;;;;5033465;28;20029;-67
2024/03/21 02:09:49;;;;;;;1.30;0.70;;;18.80;68.10;;;;;;5033348;28;20108;-66
2024/03/21 02:12:41;;;;;;;1.00;0.90;;;18.80;68.10;;;;;;5032638;28;20017;-66
2024/03/21 02:15:07;;;;;;;;;;;18.80;68.10;;;;;;5017358;28;20013;-66
2024/03/21 02:17:33;;;;;;;0.47;0.47;;;18.80;68.10;;;;;;5033514;28;19959;-67
2024/03/21 02:19:59;;;;;;;0.85;0.85;;;18.80;68.10;;;;;;5033002;28;20458;-66
2024/03/21 02:22:36;;;;;;;0.65;0.65;;;18.80;68.10;;;;;;5032803;28;20067;-67
2024/03/21 02:25:09;;;;;;;0.70;0.70;;;18.80;68.10;;;;;;5032315;28;20033;-67
2024/03/21 02:27:36;;;;;;;0.77;0.77;;;18.80;68.10;;;;;;5033099;28;20053;-66
2024/03/21 02:30:02;;;;;;;0.80;0.80;;;18.80;68.10;;;;;;5032557;28;20404;-67
2024/03/21 02:32:27;;;;;;;0.73;0.70;;;18.80;68.10;;;;;;5032501;28;20017;-67
2024/03/21 02:34:54;;;;;;;0.70;0.70;;;18.80;68.10;;;;;;5032089;28;20025;-66
2024/03/21 02:37:19;;;;;;;0.63;0.63;;;18.80;68.10;;;;;;5032906;28;20022;-67
2024/03/21 02:39:46;;;;;;;0.70;0.70;;;18.80;68.10;;;;;;5033047;28;20036;-67
2024/03/21 02:42:12;;;;;;;0.88;0.88;;;18.80;68.10;;;;;;5031838;28;20056;-66
2024/03/21 02:44:38;;;;;;;1.00;1.00;;;18.80;68.10;;;;;;5032032;28;20030;-67
2024/03/21 02:47:04;;;;;;;0.93;0.80;;;18.80;68.10;;;;;;5032720;28;20075;-67
2024/03/21 02:49:29;;;;;;;0.70;0.70;;;18.70;68.10;;;;;;5032631;28;20053;-67
2024/03/21 02:51:55;;;;;;;0.63;0.63;;;18.80;68.10;;;;;;5031983;28;20021;-67
2024/03/21 02:54:21;;;;;;;0.75;0.75;;;18.70;68.10;;;;;;5032565;28;20381;-67
2024/03/21 02:56:47;;;;;;;0.90;0.90;;;18.70;68.10;;;;;;5032429;28;20029;-67
2024/03/21 02:59:12;;;;;;;0.60;0.55;;;18.80;68.10;;;;;;5031660;28;20029;-67
2024/03/21 03:01:38;;;;;;;0.70;0.70;;;18.80;68.10;;;;;;5031925;28;20026;-67
2024/03/21 03:04:04;;;;;;;0.63;0.63;;;18.70;68.10;;;;;;5032485;28;20079;-67
2024/03/21 03:06:30;;;;;;;0.55;0.55;;;18.80;68.10;;;;;;5032653;28;20033;-66
2024/03/21 03:08:56;;;;;;;0.90;0.73;;;18.80;68.10;;;;;;5032232;28;20051;-67
2024/03/21 03:11:22;;;;;;;0.80;0.80;;;18.70;68.10;;;;;;5031594;28;20018;-66
2024/03/21 03:13:47;;;;;;;0.55;0.55;;;18.70;68.10;;;;;;5032199;28;20025;-67
2024/03/21 03:16:13;;;;;;;0.80;0.77;;;18.70;68.10;;;;;;5032182;28;20037;-67
2024/03/21 03:18:39;;;;;;;0.85;0.80;;;18.80;68.10;;;;;;5032155;28;20025;-67
2024/03/21 03:21:05;;;;;;;0.77;0.73;;;18.80;68.10;;;;;;5031652;28;20025;-65
2024/03/21 03:23:31;;;;;;;0.93;0.73;;;18.70;68.10;;;;;;5032087;28;20083;-65
2024/03/21 03:25:57;;;;;;;0.80;0.70;;;18.70;68.10;;;;;;5031646;28;20057;-65
2024/03/21 03:28:22;;;;;;;0.80;0.80;;;18.80;68.10;;;;;;5031789;28;20394;-65
2024/03/21 03:30:48;;;;;;;1.33;0.85;;;18.70;68.00;;;;;;5031820;28;20033;-68
2024/03/21 03:35:58;;;;;;;1.05;0.82;;;18.70;68.00;;;;;;5031089;28;20032;-67
2024/03/21 03:38:23;;;;;;;0.80;0.80;;;18.80;68.00;;;;;;5031835;28;20022;-67
2024/03/21 03:40:49;;;;;;;0.80;0.80;;;18.80;68.10;;;;;;5031235;28;20413;-67
2024/03/21 03:43:15;;;;;;;0.88;0.88;;;18.70;68.00;;;;;;5030371;28;20033;-67
2024/03/21 03:45:41;;;;;;;1.17;0.77;;;18.70;68.00;;;;;;5031485;28;20104;-68
2024/03/21 03:48:07;;;;;;;0.80;0.80;;;18.70;68.00;;;;;;5031532;28;20026;-67
2024/03/21 03:50:32;;;;;;;0.70;0.70;;;18.80;68.00;;;;;;5031193;28;20048;-67
2024/03/21 03:52:58;;;;;;;0.68;0.68;;;18.80;68.00;;;;;;5031292;28;20026;-67
2024/03/21 03:55:23;;;;;;;0.70;0.70;;;18.80;68.00;;;;;;5031528;28;20071;-67
2024/03/21 03:57:49;;;;;;;0.80;0.80;;;18.80;68.00;;;;;;5031499;28;20033;-67
2024/03/21 04:00:15;;;;;;;0.70;0.70;;;18.80;68.00;;;;;;5031369;28;20025;-67
2024/03/21 04:02:43;;;;;;;1.00;0.85;;;18.70;68.00;;;;;;5030873;28;20525;-67
2024/03/21 04:05:09;;;;;;;0.88;0.82;;;18.70;68.00;;;;;;5031462;28;20443;-67
2024/03/21 04:07:35;;;;;;;0.68;0.50;;;18.70;68.00;;;;;;5031164;28;20018;-67
2024/03/21 04:10:01;;;;;;;0.80;0.80;;;18.70;68.00;;;;;;5030194;28;20578;-67
2024/03/21 04:12:27;;;;;;;0.73;0.73;;;18.80;68.00;;;;;;5030600;28;20045;-67
2024/03/21 04:14:52;;;;;;;0.57;0.57;;;18.70;68.00;;;;;;5031622;28;20021;-67
2024/03/21 04:17:19;;;;;;;0.80;0.80;;;18.80;68.00;;;;;;5037075;28;20034;-67
2024/03/21 04:19:45;;;;;;;0.57;0.57;;;18.80;68.00;;;;;;5037540;28;20055;-67
2024/03/21 04:22:10;;;;;;;0.98;0.95;;;18.70;68.00;;;;;;5035803;28;20164;-64
2024/03/21 04:24:41;;;;;;;0.68;0.68;;;18.80;67.90;;;;;;5036270;28;20038;-67
2024/03/21 04:27:08;;;;;;;1.03;1.00;;;18.70;68.00;;;;;;5031001;28;20455;-67
2024/03/21 04:29:33;;;;;;;0.63;0.63;;;18.70;67.90;;;;;;5030560;28;20101;-67
2024/03/21 04:31:59;;;;;;;0.88;0.75;;;18.70;68.00;;;;;;5029992;28;20410;-67
2024/03/21 04:34:24;;;;;;;1.25;1.10;;;18.80;68.00;;;;;;5030642;28;20100;-67
2024/03/21 04:36:50;;;;;;;0.80;0.80;;;18.70;68.00;;;;;;5030612;28;20094;-67
2024/03/21 04:39:16;;;;;;;0.80;0.80;;;18.70;68.00;;;;;;5030332;28;20499;-67
2024/03/21 04:41:42;;;;;;;0.60;0.60;;;18.70;68.00;;;;;;5029876;28;20025;-67
2024/03/21 04:44:08;;;;;;;0.70;0.70;;;18.70;68.00;;;;;;5028419;28;20067;-67
2024/03/21 04:46:33;;;;;;;0.80;0.80;;;18.70;68.00;;;;;;5030394;28;20021;-67
2024/03/21 04:48:59;;;;;;;1.17;1.10;;;18.70;68.00;;;;;;5030348;28;20037;-67
2024/03/21 04:51:25;;;;;;;1.15;0.95;;;18.70;68.00;;;;;;5029532;28;20026;-67
2024/03/21 04:53:50;;;;;;;0.85;0.85;;;18.70;68.00;;;;;;5030412;28;20354;-67
2024/03/21 04:56:16;;;;;;;1.15;1.05;;;18.70;68.00;;;;;;5030524;28;20014;-67
2024/03/21 04:58:41;;;;;;;0.93;0.93;;;18.70;68.00;;;;;;5029886;28;20021;-67
2024/03/21 05:01:07;;;;;;;0.90;0.90;;;18.70;68.00;;;;;;5029855;28;20152;-64
2024/03/21 05:03:33;;;;;;;0.70;0.70;;;18.70;68.00;;;;;;5029937;28;20053;-64
2024/03/21 05:05:58;;;;;;;0.70;0.70;;;18.70;68.00;;;;;;5030112;28;20025;-65
2024/03/21 05:08:25;;;;;;;0.63;0.63;;;18.70;68.00;;;;;;5030006;28;20025;-65
2024/03/21 05:10:50;;;;;;;1.02;0.93;;;18.70;68.00;;;;;;5029644;28;20060;-66
2024/03/21 05:13:16;;;;;;;0.80;0.80;;;18.70;68.00;;;;;;5030201;28;20049;-65
2024/03/21 05:15:51;;;;;;;0.55;0.55;;;18.70;68.00;;;;;;5030181;28;20044;-66
2024/03/21 05:18:17;;;;;;;0.95;0.95;;;18.70;68.00;;;;;;5030217;28;20412;-66
2024/03/21 05:20:43;;;;;;;0.63;0.60;;;18.70;67.90;;;;;;5028819;28;20026;-65
2024/03/21 05:23:08;;;;;;;0.93;0.90;;;18.70;67.90;;;;;;5029508;28;20496;-65
2024/03/21 05:25:35;;;;;;;0.70;0.70;;;18.70;67.90;;;;;;5030091;28;20029;-66
2024/03/21 05:28:01;;;;;;;0.90;0.90;;;18.70;67.90;;;;;;5030073;28;20029;-66
2024/03/21 05:30:27;;;;;;;1.00;0.90;;;18.70;67.90;;;;;;5029924;28;20034;-66
2024/03/21 05:32:52;;;;;;;0.88;0.88;;;18.70;67.90;;;;;;5011754;28;20025;-65
2024/03/21 05:35:18;;;;;;;1.17;1.08;;;18.70;67.90;;;;;;5030223;28;20095;-66
2024/03/21 05:37:44;;;;;;;0.80;0.80;;;18.80;67.80;;;;;;5030289;28;20126;-66
2024/03/21 05:40:12;;;;;;;0.80;0.80;;;18.80;67.80;;;;;;5029952;28;20026;-66
2024/03/21 05:42:37;;;;;;;1.15;1.05;;;18.80;67.80;;;;;;5028613;28;20072;-66
2024/03/21 05:45:04;;;;;;;0.80;0.80;;;18.70;67.80;;;;;;5030547;28;20033;-66
2024/03/21 05:47:29;;;;;;;1.02;0.88;;;18.80;67.80;;;;;;5029766;28;20029;-66
2024/03/21 05:49:55;;;;;;;0.75;0.75;;;18.70;67.80;;;;;;5029791;28;20083;-65
2024/03/21 05:52:21;;;;;;;0.80;0.80;;;18.70;67.80;;;;;;5029159;28;20018;-66
2024/03/21 05:54:50;;;;;;;1.10;1.00;;;18.70;67.80;;;;;;5028992;28;20543;-66
2024/03/21 05:57:17;;;;;;;1.17;1.08;;;18.70;67.80;;;;;;5029918;28;20021;-66
2024/03/21 05:59:43;;;;;;;1.08;0.93;;;18.80;67.80;;;;;;5030170;28;20052;-66
2024/03/21 06:02:08;;;;;;;0.90;0.80;;;18.70;67.80;;;;;;5029555;28;20026;-66
2024/03/21 06:04:35;;;;;;;0.70;0.70;;;18.70;67.80;;;;;;5030455;28;20029;-66
2024/03/21 06:07:01;;;;;;;0.95;0.90;;;18.70;67.80;;;;;;5029971;28;20562;-66
2024/03/21 06:09:28;;;;;;;0.85;0.80;;;18.70;67.80;;;;;;5030403;28;20593;-66
2024/03/21 06:11:54;;;;;;;1.55;1.10;;;18.70;67.80;;;;;;5033213;28;20104;-66
2024/03/21 06:14:19;;;;;;;1.05;1.02;;;18.70;67.80;;;;;;5033705;28;20080;-66
2024/03/21 06:16:45;;;;;;;0.80;0.80;;;18.70;67.80;;;;;;5033350;28;20029;-67
2024/03/21 06:19:11;;;;;;;0.77;0.73;;;18.70;67.80;;;;;;5033666;28;20036;-66
2024/03/21 06:21:36;;;;;;;0.90;0.90;;;18.70;67.80;;;;;;5033050;28;20508;-66
2024/03/21 06:24:02;;;;;;;0.65;0.65;;;18.70;67.80;;;;;;5033542;28;20040;-66
2024/03/21 06:26:27;;;;;;;0.80;0.80;;;18.70;67.80;;;;;;5033553;28;20026;-67
2024/03/21 06:28:53;;;;;;;0.93;0.80;;;18.70;67.80;;;;;;5033523;28;20458;-67
2024/03/21 06:31:19;;;;;;;0.77;0.77;;;18.70;67.80;;;;;;5032860;28;20101;-66
2024/03/21 06:33:44;;;;;;;1.00;0.90;;;18.70;67.80;;;;;;5033954;28;20026;-67
2024/03/21 06:36:10;;;;;;;0.88;0.80;;;18.70;67.80;;;;;;5033758;28;20064;-67
2024/03/21 06:38:36;;;;;;;0.80;0.80;;;18.70;67.90;;;;;;5034015;28;20048;-66
2024/03/21 06:41:01;;;;;;;0.80;0.77;;;18.70;67.90;;;;;;5033368;28;20099;-66
2024/03/21 06:43:27;;;;;;;0.80;0.80;;;18.70;67.90;;;;;;5033506;28;20022;-67
2024/03/21 06:45:56;;;;;;;0.70;0.70;;;18.70;67.90;;;;;;5033837;28;20029;-67
2024/03/21 06:48:22;;;;;;;0.80;0.80;;;18.70;67.90;;;;;;5033929;28;20026;-66
2024/03/21 06:50:49;;;;;;;1.10;0.90;;;18.70;67.90;;;;;;5033307;28;20485;-67
2024/03/21 06:53:14;;;;;;;1.00;0.90;;;18.70;67.90;;;;;;5033411;28;20026;-66
2024/03/21 06:55:40;;;;;;;0.80;0.80;;;18.80;67.90;;;;;;5033621;28;20156;-66
2024/03/21 06:58:05;;;;;;;0.80;0.80;;;18.80;67.90;;;;;;5033617;28;20488;-66
2024/03/21 07:00:32;;;;;;;1.77;0.90;;;18.80;67.90;;;;;;5033354;28;20026;-67
2024/03/21 07:02:58;;;;;;;0.73;0.73;;;18.80;67.90;;;;;;5033308;28;20029;-66
2024/03/21 07:05:24;;;;;;;0.93;0.85;;;18.80;67.90;;;;;;5033602;28;20025;-67
2024/03/21 07:07:51;;;;;;;1.00;1.00;;;18.80;67.90;;;;;;5033436;28;20074;-67
2024/03/21 07:10:17;;;;;;;1.27;1.13;;;18.80;67.90;;;;;;5033245;28;20097;-67
2024/03/21 07:12:42;;;;;;;1.10;0.95;;;18.80;67.90;;;;;;5032528;28;20026;-66
2024/03/21 07:15:08;;;;;;;0.70;0.70;;;18.80;67.90;;;;;;5033594;28;20026;-67
2024/03/21 07:17:34;;;;;;;0.80;0.80;;;18.80;67.90;;;;;;5033206;28;20497;-66
2024/03/21 07:20:00;;;;;;;1.00;0.90;;;18.80;67.80;;;;;;5032843;28;20131;-66
2024/03/21 07:22:26;;;;;;;1.17;1.08;;;18.80;67.80;;;;;;5032268;28;20036;-67
2024/03/21 07:24:51;;;;;;;1.50;1.10;;;18.90;67.80;;;;;;5033096;28;20598;-67
2024/03/21 07:27:18;;;;;;;1.20;1.10;;;18.90;67.90;;;;;;5032936;28;20051;-67
2024/03/21 07:29:43;;;;;;;1.17;1.08;;;18.90;67.90;;;;;;5032962;28;20025;-66
2024/03/21 07:32:09;;;;;;;1.23;1.13;;;18.90;67.90;;;;;;5032525;28;20032;-66
2024/03/21 07:34:35;;;;;;;0.82;0.82;;;18.90;67.90;;;;;;5032645;28;20025;-66
2024/03/21 07:37:01;;;;;;;1.15;1.05;;;18.90;67.90;;;;;;5032776;28;20049;-67
2024/03/21 07:39:27;;;;;;;1.15;1.05;;;18.90;67.80;;;;;;5032797;28;20068;-66
2024/03/21 07:41:52;;;;;;;0.73;0.73;;;18.90;67.80;;;;;;5032039;28;20034;-67
2024/03/21 07:44:18;;;;;;;1.20;1.10;;;18.90;67.90;;;;;;5032878;28;20091;-66
2024/03/21 07:46:44;;;;;;;1.45;1.17;;;18.90;67.80;;;;;;5032913;28;20071;-67
2024/03/21 07:49:10;;;;;;;1.17;1.08;;;18.90;67.90;;;;;;5032702;28;20112;-67
2024/03/21 07:51:36;;;;;;;1.67;1.13;;;18.90;67.90;;;;;;5032272;28;20017;-67
2024/03/21 07:54:02;;;;;;;1.02;0.85;;;18.90;67.90;;;;;;5032870;28;20026;-67
2024/03/21 07:56:28;;;;;;;1.13;1.02;;;18.90;67.80;;;;;;5032274;28;20103;-67
2024/03/21 07:58:53;;;;;;;1.13;0.95;;;18.90;67.80;;;;;;5032814;28;20056;-66
2024/03/21 08:01:21;;;;;;;1.05;0.98;;;18.90;67.80;;;;;;5032527;28;20029;-67
2024/03/21 08:03:46;;;;;;;1.98;1.25;;;18.90;67.80;;;;;;5033289;28;20029;-67
2024/03/21 08:06:12;;;;;;;2.28;1.13;;;18.90;67.80;;;;;;5036136;28;20029;-68
2024/03/21 08:08:37;;;;;;;0.90;0.90;;;18.90;67.80;;;;;;5037181;28;20030;-67
2024/03/21 08:11:04;;;;;;;0.80;0.80;;;18.90;67.80;;;;;;5036095;28;20029;-67
2024/03/21 08:13:29;;;;;;;0.82;0.82;;;18.90;67.80;;;;;;5039275;28;20025;-66
2024/03/21 08:15:56;;;;;;;0.98;0.90;;;18.90;67.80;;;;;;5038381;28;20470;-67
2024/03/21 08:18:22;;;;;;;0.90;0.90;;;18.90;67.80;;;;;;5045927;23;20049;-63
2024/03/21 08:20:48;;;;;;;1.13;1.10;;;18.90;67.80;;;;;;5030242;28;20048;-62
2024/03/21 08:23:15;;;;;;;0.85;0.85;;;18.90;67.90;;;;;;5030082;28;20499;-63
2024/03/21 08:25:40;;;;;;;1.50;1.13;;;18.90;67.90;;;;;;5030549;28;20041;-63
2024/03/21 08:28:07;;;;;;;1.05;0.90;;;18.90;67.90;;;;;;5030258;28;20103;-57
2024/03/21 08:30:32;;;;;;;1.00;0.90;;;18.80;67.90;;;;;;5030035;28;20029;-61
2024/03/21 08:32:58;;;;;;;1.17;1.05;;;18.80;67.90;;;;;;5029136;28;20021;-63
2024/03/21 08:35:24;;;;;;;1.17;1.08;;;18.90;68.00;;;;;;5030853;28;20144;-63
2024/03/21 08:37:49;;;;;;;1.13;1.02;;;18.80;68.00;;;;;;5031041;28;20021;-63
2024/03/21 08:40:15;;;;;;;0.60;0.60;;;18.90;68.00;;;;;;5030580;28;20045;-63
2024/03/21 08:42:41;;;;;;;1.13;0.98;;;18.80;68.00;;;;;;5029507;28;20032;-63
2024/03/21 08:45:09;;;;;;;1.50;1.08;;;18.80;68.00;;;;;;5031215;28;20485;-64
2024/03/21 08:47:36;;;;;;;1.00;1.00;;;18.80;68.00;;;;;;5030820;28;20032;-64
2024/03/21 08:50:02;;;;;;;0.82;0.82;;;18.90;68.00;;;;;;5030736;28;20032;-63
2024/03/21 08:52:27;;;;;;;1.30;1.17;;;18.90;68.00;;;;;;5030209;28;20022;-64
2024/03/21 08:54:53;;;;;;;0.90;0.80;;;18.80;68.00;;;;;;5030649;28;20013;-63
2024/03/21 08:57:18;;;;;;;1.23;1.13;;;18.90;68.00;;;;;;5030567;28;20082;-64
2024/03/21 08:59:44;;;;;;;1.05;1.00;;;18.90;68.00;;;;;;5030777;28;20378;-63
2024/03/21 09:02:11;;;;;;;1.05;0.95;;;18.90;68.00;;;;;;5030122;28;20037;-63
2024/03/21 09:04:37;;;;;;;0.98;0.98;;;18.90;68.00;;;;;;5030870;28;20029;-64
2024/03/21 09:07:04;;;;;;;0.90;0.80;;;18.90;68.10;;;;;;5030441;28;20048;-63
2024/03/21 09:09:34;;;;;;;0.80;0.80;;;18.90;68.10;;;;;;5030250;28;20034;-63
2024/03/21 09:12:03;;;;;;;1.20;0.93;;;18.90;68.10;;;;;;5029690;28;20048;-63
2024/03/21 09:14:29;;;;;;;1.10;0.95;;;18.90;68.10;;;;;;5029968;28;20115;-65
2024/03/21 09:16:55;;;;;;;0.93;0.82;;;18.90;68.10;;;;;;5030291;28;20488;-65
2024/03/21 09:19:21;;;;;;;1.27;1.17;;;18.90;68.10;;;;;;5030565;28;20063;-63
2024/03/21 09:21:47;;;;;;;1.10;1.00;;;18.90;68.10;;;;;;5029980;28;20026;-63
2024/03/21 09:24:12;;;;;;;0.70;0.68;;;19.00;68.10;;;;;;5030333;28;20076;-63
2024/03/21 09:26:40;;;;;;;0.95;0.95;;;19.00;68.10;;;;;;5030700;28;20041;-64
2024/03/21 09:29:05;;;;;;;0.85;0.80;;;18.90;68.00;;;;;;5030506;28;20025;-65
2024/03/21 09:31:31;;;;;;;0.82;0.82;;;18.90;67.90;;;;;;5029945;28;20083;-65
2024/03/21 09:34:00;;;;;;;0.90;0.90;;;18.90;67.90;;;;;;5030701;28;20029;-63
2024/03/21 09:36:26;;;;;;;1.35;1.15;;;19.00;67.90;;;;;;5030301;28;20477;-64
2024/03/21 09:38:52;;;;;;;0.82;0.70;;;18.90;67.90;;;;;;5030328;28;20033;-64
2024/03/21 09:41:18;;;;;;;0.98;0.88;;;18.90;67.90;;;;;;5029244;28;20072;-63
2024/03/21 09:43:44;;;;;;;0.90;0.85;;;18.90;67.90;;;;;;5030135;28;20029;-63
2024/03/21 09:46:16;;;;;;;1.15;1.05;;;18.90;67.90;;;;;;5034457;28;20079;-63
2024/03/21 09:48:45;;;;;;;0.80;0.80;;;18.90;67.90;;;;;;5033630;28;20671;-64
2024/03/21 09:51:21;;;;;;;1.73;0.90;;;18.90;67.90;;;;;;5033812;28;20033;-64
2024/03/21 09:53:48;;;;;;;0.80;0.80;;;18.90;67.90;;;;;;5034452;28;20021;-64
2024/03/21 09:56:17;;;;;;;1.13;1.02;;;18.90;67.90;;;;;;5034481;28;20014;-66
2024/03/21 09:58:43;;;;;;;0.88;0.85;;;18.90;68.00;;;;;;5034167;28;20069;-63
2024/03/21 10:01:23;;;;;;;1.45;1.10;;;18.90;67.90;;;;;;5033818;28;20025;-63
2024/03/21 10:03:55;;;;;;;1.75;1.20;;;18.90;68.00;;;;;;5034362;28;20404;-64
2024/03/21 10:06:20;;;;;;;;;;;18.90;68.00;;;;;;5034281;28;20055;-64
2024/03/21 10:08:46;;;;;;;1.33;1.00;;;18.90;68.00;;;;;;5034261;28;20012;-65
2024/03/21 10:11:15;;;;;;;1.15;1.05;;;18.90;68.00;;;;;;5033108;28;20033;-62
2024/03/21 10:13:43;;;;;;;0.90;0.90;;;18.90;68.00;;;;;;5033920;28;20070;-64
2024/03/21 10:16:13;;;;;;;0.80;0.80;;;18.90;68.10;;;;;;5034011;28;20021;-64
2024/03/21 10:18:40;;;;;;;0.98;0.80;;;18.90;68.00;;;;;;5033789;28;20052;-64
2024/03/21 10:21:19;;;;;;;1.20;1.10;;;18.90;68.10;;;;;;5033221;28;20025;-64
2024/03/21 10:23:44;;;;;;;1.25;1.15;;;18.90;68.10;;;;;;5033400;28;20030;-63
2024/03/21 10:26:14;;;;;;;1.38;1.05;;;18.90;68.10;;;;;;5033430;28;20037;-64
2024/03/21 10:28:41;;;;;;;0.82;0.77;;;18.90;68.10;;;;;;5033386;28;20030;-64
2024/03/21 10:31:15;;;;;;;0.80;0.80;;;18.90;68.10;;;;;;5032733;28;20021;-64
2024/03/21 10:33:43;;;;;;;0.80;0.80;;;18.80;68.10;;;;;;5033094;28;20061;-64
2024/03/21 10:36:11;;;;;;;1.25;1.08;;;18.80;68.10;;;;;;5015163;28;20485;-63
2024/03/21 10:38:37;;;;;;;1.15;1.00;;;18.90;68.20;;;;;;5015725;28;20041;-61
2024/03/21 10:41:11;;;;;;;0.95;0.85;;;18.90;68.20;;;;;;5032829;28;20040;-64
2024/03/21 10:43:40;;;;;;;0.85;0.85;;;18.90;68.20;;;;;;5032573;28;20094;-66
2024/03/21 10:46:05;;;;;;;0.88;0.88;;;18.90;68.20;;;;;;5033084;28;20025;-63
2024/03/21 10:48:35;;;;;;;1.10;1.00;;;18.90;68.20;;;;;;5032819;28;20048;-65
2024/03/21 10:51:11;;;;;;;1.10;1.00;;;18.90;68.20;;;;;;5032758;28;20023;-63
2024/03/21 10:53:36;;;;;;;1.35;0.90;;;18.90;68.20;;;;;;5033102;28;20022;-64
2024/03/21 10:56:08;;;;;;;0.77;0.73;;;18.90;68.20;;;;;;5032209;28;20029;-64
2024/03/21 10:58:42;;;;;;;0.80;0.80;;;18.90;68.20;;;;;;5033023;28;20029;-64
2024/03/21 11:01:08;;;;;;;0.98;0.90;;;18.90;68.20;;;;;;5032175;28;20523;-64
2024/03/21 11:03:51;;;;;;;0.88;0.80;;;18.90;68.20;;;;;;5032668;28;20029;-64
2024/03/21 11:06:21;;;;;;;0.73;0.70;;;18.90;68.20;;;;;;5032930;28;20025;-63
2024/03/21 11:08:57;;;;;;;0.90;0.90;;;18.90;68.20;;;;;;5032833;28;20119;-66
2024/03/21 11:11:22;;;;;;;1.73;1.00;;;18.90;68.20;;;;;;5032156;28;20034;-64
2024/03/21 11:13:48;;;;;;;1.20;0.95;;;18.90;68.20;;;;;;5031783;28;20024;-64
2024/03/21 11:16:13;;;;;;;2.17;1.02;;;18.90;68.10;;;;;;5032597;28;20044;-63
2024/03/21 11:18:40;;;;;;;1.10;1.00;;;18.90;68.10;;;;;;5032590;28;20048;-63
2024/03/21 11:21:11;;;;;;;1.00;0.93;;;18.90;68.10;;;;;;5031786;28;20051;-66
2024/03/21 11:23:39;;;;;;;1.05;1.05;;;18.90;68.10;;;;;;5032878;28;20034;-64
2024/03/21 11:26:07;;;;;;;0.70;0.70;;;18.90;68.10;;;;;;5032636;28;20030;-63
2024/03/21 11:28:33;;;;;;;1.00;0.88;;;18.90;68.10;;;;;;5032209;28;20413;-63
2024/03/21 11:30:59;;;;;;;0.80;0.80;;;18.90;68.10;;;;;;5031604;28;20037;-64
2024/03/21 11:33:25;;;;;;;0.80;0.80;;;18.90;68.10;;;;;;5032096;28;20021;-63
2024/03/21 11:35:52;;;;;;;1.67;1.00;;;18.90;68.10;;;;;;5032242;28;20109;-64
2024/03/21 11:38:17;;;;;;;0.63;0.63;;;18.90;68.10;;;;;;5032201;28;20048;-64
2024/03/21 11:40:43;;;;;;;0.80;0.80;;;18.90;68.10;;;;;;5031768;28;20452;-64
2024/03/21 11:43:08;;;;;;;0.80;0.80;;;18.90;68.10;;;;;;5030688;28;20028;-65
2024/03/21 11:45:37;;;;;;;0.80;0.60;;;18.90;68.20;;;;;;5031842;28;20076;-64
2024/03/21 11:48:10;;;;;;;0.93;0.80;;;18.90;68.20;;;;;;5031645;28;20044;-64
2024/03/21 11:50:40;;;;;;;0.77;0.73;;;18.90;68.20;;;;;;5031363;28;20434;-64
2024/03/21 11:53:06;;;;;;;0.93;0.88;;;18.90;68.20;;;;;;5031253;28;20049;-65
2024/03/21 11:55:32;;;;;;;1.30;1.10;;;18.90;68.20;;;;;;5032040;28;20026;-65
2024/03/21 11:57:57;;;;;;;1.05;0.95;;;18.90;68.20;;;;;;5031908;28;20028;-64
2024/03/21 12:00:24;;;;;;;0.70;0.70;;;18.90;68.20;;;;;;5031821;28;20045;-65
2024/03/21 12:02:53;;;;;;;1.20;0.90;;;18.90;68.20;;;;;;5031283;28;20034;-64
2024/03/21 12:05:19;;;;;;;1.20;1.02;;;18.90;68.20;;;;;;5031344;28;20030;-64
2024/03/21 12:07:45;;;;;;;0.98;0.65;;;18.90;68.20;;;;;;5030249;28;20640;-63
2024/03/21 12:10:12;;;;;;;0.60;0.60;;;18.90;68.20;;;;;;5031284;28;20098;-65
2024/03/21 12:12:38;;;;;;;0.80;0.80;;;18.90;68.30;;;;;;5030948;28;20021;-65
2024/03/21 12:15:05;;;;;;;0.90;0.90;;;18.90;68.20;;;;;;5031395;28;20041;-64
2024/03/21 12:17:33;;;;;;;1.02;0.80;;;18.90;68.20;;;;;;5030774;28;20025;-64
2024/03/21 12:19:59;;;;;;;1.15;1.00;;;18.90;68.30;;;;;;5030476;28;20029;-64
2024/03/21 12:22:26;;;;;;;1.23;0.90;;;18.90;68.30;;;;;;5029980;28;20099;-63
2024/03/21 12:24:52;;;;;;;0.98;0.90;;;18.90;68.30;;;;;;5030591;28;20025;-66
2024/03/21 12:27:18;;;;;;;0.60;0.60;;;18.90;68.30;;;;;;5030452;28;20108;-64
2024/03/21 12:29:46;;;;;;;1.30;1.20;;;18.90;68.30;;;;;;5030194;28;20104;-63
2024/03/21 12:32:12;;;;;;;1.15;1.05;;;18.90;68.30;;;;;;5029444;28;20033;-64
2024/03/21 12:34:38;;;;;;;1.10;0.90;;;18.90;68.30;;;;;;5031297;28;20389;-65
2024/03/21 12:37:04;;;;;;;0.80;0.80;;;18.90;68.30;;;;;;5031881;28;20029;-64
2024/03/21 12:39:30;;;;;;;0.82;0.80;;;18.90;68.30;;;;;;5031712;28;20429;-65
2024/03/21 12:41:55;;;;;;;1.13;1.00;;;18.90;68.30;;;;;;5030706;28;20029;-64
2024/03/21 12:44:21;;;;;;;1.23;0.70;;;18.90;68.30;;;;;;5030626;28;20025;-62
2024/03/21 12:46:47;;;;;;;0.70;0.70;;;18.90;68.40;;;;;;5031237;28;20056;-63